createdAt,value
2022-12-29T00:01:10.790Z,5.95
2022-12-29T00:03:38.960Z,4.97
2022-12-29T00:06:08.547Z,4.30
2022-12-29T00:08:42.320Z,6.10
2022-12-29T00:11:12.563Z,6.60
2022-12-29T00:13:58.387Z,5.65
2022-12-29T00:16:26.667Z,5.70
2022-12-29T00:18:54.861Z,6.72
2022-12-29T00:21:43.212Z,5.95
2022-12-29T00:24:32.463Z,5.47
2022-12-29T00:27:26.074Z,5.20
2022-12-29T00:30:12.038Z,6.00
2022-12-29T00:32:57.258Z,5.35
2022-12-29T00:35:31.351Z,5.35
2022-12-29T00:38:23.113Z,6.50
2022-12-29T00:41:09.043Z,4.78
2022-12-29T00:43:54.417Z,4.85
2022-12-29T00:46:22.662Z,4.88
2022-12-29T00:49:08.265Z,6.22
2022-12-29T00:51:36.484Z,5.15
2022-12-29T00:54:06.006Z,4.15
2022-12-29T00:56:34.197Z,4.45
2022-12-29T00:59:03.082Z,5.32
2022-12-29T01:01:31.617Z,4.05
2022-12-29T01:04:03.734Z,4.43
2022-12-29T01:06:32.657Z,4.85
2022-12-29T01:09:18.974Z,3.85
2022-12-29T01:11:48.522Z,3.80
2022-12-29T01:14:17.115Z,5.05
2022-12-29T01:16:47.255Z,4.43
2022-12-29T01:19:16.241Z,3.83
2022-12-29T01:21:46.512Z,1.98
2022-12-29T01:24:15.354Z,3.85
2022-12-29T01:26:43.561Z,3.28
2022-12-29T01:29:15.404Z,3.88
2022-12-29T01:31:43.525Z,2.65
2022-12-29T01:34:11.753Z,3.00
2022-12-29T01:36:39.850Z,3.70
2022-12-29T01:39:07.984Z,1.75
2022-12-29T01:41:36.202Z,2.25
2022-12-29T01:44:04.329Z,3.80
2022-12-29T01:46:37.110Z,2.25
2022-12-29T01:51:39.988Z,4.45
2022-12-29T01:54:36.006Z,3.83
2022-12-29T01:57:09.591Z,3.08
2022-12-29T02:02:10.253Z,3.90
2022-12-29T02:04:45.296Z,4.00
2022-12-29T02:07:19.510Z,4.63
2022-12-29T02:09:49.862Z,3.00
2022-12-29T02:12:20.143Z,3.72
2022-12-29T02:14:50.089Z,3.67
2022-12-29T02:17:30.853Z,5.75
2022-12-29T02:20:36.959Z,4.47
2022-12-29T02:23:28.923Z,5.13
2022-12-29T02:26:14.112Z,3.20
2022-12-29T02:29:15.210Z,6.25
2022-12-29T02:31:53.327Z,5.03
2022-12-29T02:34:46.662Z,3.65
2022-12-29T02:37:24.544Z,2.17
2022-12-29T02:39:59.887Z,4.57
2022-12-29T02:42:38.028Z,3.75
2022-12-29T02:45:12.405Z,2.22
2022-12-29T02:47:50.089Z,4.07
2022-12-29T02:50:26.473Z,4.47
2022-12-29T02:53:00.441Z,3.95
2022-12-29T02:55:27.780Z,3.28
2022-12-29T02:58:17.468Z,2.83
2022-12-29T03:01:05.857Z,2.28
2022-12-29T03:03:48.431Z,2.70
2022-12-29T03:06:35.005Z,3.35
2022-12-29T03:09:18.822Z,3.10
2022-12-29T03:12:10.627Z,4.15
2022-12-29T03:15:07.239Z,3.08
2022-12-29T03:17:42.439Z,3.30
2022-12-29T03:20:20.231Z,2.40
2022-12-29T03:22:51.062Z,5.50
2022-12-29T03:25:24.863Z,3.65
2022-12-29T03:27:57.656Z,3.50
2022-12-29T03:32:56.602Z,4.88
2022-12-29T03:35:29.681Z,4.47
2022-12-29T03:38:04.784Z,2.70
2022-12-29T03:40:34.990Z,3.25
2022-12-29T03:43:04.248Z,3.72
2022-12-29T03:45:32.338Z,7.47
2022-12-29T03:48:00.595Z,3.53
2022-12-29T03:50:30.088Z,3.05
2022-12-29T03:52:58.294Z,2.38
2022-12-29T03:55:26.410Z,1.35
2022-12-29T03:57:54.481Z,4.20
2022-12-29T04:00:22.848Z,3.60
2022-12-29T04:02:51.057Z,6.30
2022-12-29T04:05:19.516Z,3.28
2022-12-29T04:07:49.052Z,3.58
2022-12-29T04:10:17.499Z,3.55
2022-12-29T04:12:47.669Z,4.00
2022-12-29T04:15:16.080Z,4.03
2022-12-29T04:17:44.172Z,4.57
2022-12-29T04:20:29.837Z,2.35
2022-12-29T04:23:03.646Z,4.22
2022-12-29T04:25:33.517Z,4.88
2022-12-29T04:28:02.743Z,4.63
2022-12-29T04:30:33.831Z,4.20
2022-12-29T04:33:02.510Z,3.13
2022-12-29T04:35:30.647Z,2.15
2022-12-29T04:38:01.219Z,3.22
2022-12-29T04:40:30.802Z,5.38
2022-12-29T04:42:58.943Z,2.03
2022-12-29T04:45:27.083Z,4.80
2022-12-29T04:47:55.189Z,4.60
2022-12-29T04:50:23.266Z,3.25
2022-12-29T04:52:51.290Z,2.90
2022-12-29T04:55:19.451Z,3.63
2022-12-29T04:57:48.922Z,4.70
2022-12-29T05:00:17.382Z,5.68
2022-12-29T05:02:48.001Z,4.00
2022-12-29T05:05:16.355Z,2.72
2022-12-29T05:07:44.507Z,4.68
2022-12-29T05:10:13.482Z,6.10
2022-12-29T05:12:42.782Z,5.90
2022-12-29T05:15:13.168Z,7.57
2022-12-29T05:17:41.418Z,4.50
2022-12-29T05:20:10.649Z,2.97
2022-12-29T05:22:38.747Z,2.58
2022-12-29T05:25:07.568Z,3.95
2022-12-29T05:27:35.687Z,2.78
2022-12-29T05:30:05.121Z,4.53
2022-12-29T05:32:34.549Z,7.55
2022-12-29T05:35:02.760Z,5.22
2022-12-29T05:37:30.777Z,4.95
2022-12-29T05:40:00.298Z,2.50
2022-12-29T05:42:28.349Z,5.53
2022-12-29T05:44:56.490Z,4.20
2022-12-29T05:47:24.614Z,5.38
2022-12-29T05:49:54.069Z,4.72
2022-12-29T05:52:22.225Z,4.95
2022-12-29T05:54:50.354Z,5.93
2022-12-29T05:57:18.485Z,6.18
2022-12-29T05:59:46.810Z,6.70
2022-12-29T06:02:15.173Z,7.38
2022-12-29T06:04:43.323Z,7.75
2022-12-29T06:07:12.806Z,6.68
2022-12-29T06:09:40.887Z,5.80
2022-12-29T06:12:09.204Z,6.55
2022-12-29T06:14:37.363Z,12.65
2022-12-29T06:17:05.481Z,5.30
2022-12-29T06:19:33.636Z,8.80
2022-12-29T06:22:01.766Z,8.25
2022-12-29T06:24:31.379Z,9.77
2022-12-29T06:26:59.438Z,7.20
2022-12-29T06:29:27.749Z,8.75
2022-12-29T06:31:58.901Z,6.35
2022-12-29T06:34:27.128Z,6.35
2022-12-29T06:36:55.368Z,9.45
2022-12-29T06:39:25.632Z,7.05
2022-12-29T06:41:55.961Z,6.53
2022-12-29T06:44:24.261Z,4.50
2022-12-29T06:46:52.623Z,5.43
2022-12-29T06:49:20.715Z,6.20
2022-12-29T06:51:49.043Z,8.07
2022-12-29T06:54:17.567Z,6.25
2022-12-29T06:56:45.638Z,7.90
2022-12-29T06:59:15.351Z,5.57
2022-12-29T07:01:43.503Z,6.70
2022-12-29T07:04:11.747Z,6.50
2022-12-29T07:06:41.639Z,5.13
2022-12-29T07:09:10.463Z,5.13
2022-12-29T07:11:38.586Z,7.43
2022-12-29T07:14:06.814Z,5.90
2022-12-29T07:16:36.318Z,5.95
2022-12-29T07:19:04.621Z,5.13
2022-12-29T07:21:32.854Z,7.90
2022-12-29T07:24:00.920Z,5.25
2022-12-29T07:26:34.394Z,10.25
2022-12-29T07:29:04.472Z,9.63
2022-12-29T07:31:32.799Z,6.43
2022-12-29T07:34:02.335Z,6.18
2022-12-29T07:36:34.307Z,6.57
2022-12-29T07:39:02.961Z,9.05
2022-12-29T07:41:31.187Z,3.97
2022-12-29T07:43:59.719Z,10.52
2022-12-29T07:46:53.910Z,4.18
2022-12-29T07:49:17.368Z,7.45
2022-12-29T07:51:45.471Z,8.80
2022-12-29T07:54:14.192Z,8.70
2022-12-29T07:56:42.533Z,8.70
2022-12-29T07:59:13.839Z,11.52
2022-12-29T08:01:42.044Z,7.63
2022-12-29T08:04:10.399Z,9.02
2022-12-29T08:06:39.990Z,8.13
2022-12-29T08:09:14.775Z,8.00
2022-12-29T08:11:46.236Z,8.70
2022-12-29T08:14:15.191Z,10.27
2022-12-29T08:16:43.290Z,8.80
2022-12-29T08:19:12.722Z,6.35
2022-12-29T08:21:42.212Z,9.25
2022-12-29T08:24:11.250Z,8.95
2022-12-29T08:26:39.331Z,6.97
2022-12-29T08:29:07.412Z,4.90
2022-12-29T08:31:35.691Z,7.05
2022-12-29T08:34:04.423Z,10.32
2022-12-29T08:36:32.913Z,8.40
2022-12-29T08:39:02.366Z,8.90
2022-12-29T08:41:30.504Z,10.73
2022-12-29T08:43:58.594Z,14.10
2022-12-29T08:46:26.728Z,7.60
2022-12-29T08:48:55.903Z,10.27
2022-12-29T08:51:25.160Z,6.88
2022-12-29T08:53:54.063Z,9.27
2022-12-29T08:56:24.768Z,9.40
2022-12-29T08:58:53.488Z,13.27
2022-12-29T09:01:21.697Z,8.13
2022-12-29T09:06:40.653Z,6.53
2022-12-29T09:09:09.368Z,8.15
2022-12-29T09:11:39.002Z,13.73
2022-12-29T09:14:07.328Z,9.00
2022-12-29T09:16:36.820Z,10.00
2022-12-29T09:19:05.377Z,12.40
2022-12-29T09:21:33.621Z,9.65
2022-12-29T09:24:01.785Z,14.48
2022-12-29T09:26:29.901Z,14.13
2022-12-29T09:28:59.369Z,9.10
2022-12-29T09:31:29.972Z,12.23
2022-12-29T09:33:58.198Z,8.55
2022-12-29T09:36:28.510Z,10.63
2022-12-29T09:38:56.594Z,10.18
2022-12-29T09:41:32.117Z,12.27
2022-12-29T09:44:08.931Z,10.07
2022-12-29T09:46:41.449Z,10.23
2022-12-29T09:49:18.904Z,8.20
2022-12-29T09:51:52.079Z,9.23
2022-12-29T09:54:29.915Z,7.22
2022-12-29T09:56:58.439Z,7.10
2022-12-29T09:59:39.001Z,10.32
2022-12-29T10:02:20.198Z,9.43
2022-12-29T10:04:48.398Z,10.38
2022-12-29T10:07:30.443Z,7.30
2022-12-29T10:10:11.926Z,9.27
2022-12-29T10:12:54.458Z,9.80
2022-12-29T10:15:39.174Z,6.75
2022-12-29T10:18:23.601Z,8.75
2022-12-29T10:20:56.965Z,8.93
2022-12-29T10:25:59.170Z,7.53
2022-12-29T10:28:36.763Z,8.38
2022-12-29T10:31:14.200Z,5.70
2022-12-29T10:33:44.940Z,11.23
2022-12-29T10:36:18.478Z,9.38
2022-12-29T10:38:55.421Z,6.82
2022-12-29T10:41:28.255Z,10.05
2022-12-29T10:44:00.018Z,8.35
2022-12-29T10:46:35.460Z,8.65
2022-12-29T10:49:03.970Z,8.52
2022-12-29T10:51:36.301Z,6.85
2022-12-29T10:54:08.725Z,12.05
2022-12-29T10:56:41.670Z,12.30
2022-12-29T10:59:18.350Z,9.95
2022-12-29T11:01:58.250Z,10.10
2022-12-29T11:04:45.370Z,10.10
2022-12-29T11:07:16.308Z,7.32
2022-12-29T11:09:47.013Z,11.52
2022-12-29T11:12:27.564Z,10.98
2022-12-29T11:15:16.016Z,7.35
2022-12-29T11:17:50.713Z,10.32
2022-12-29T11:20:31.023Z,10.40
2022-12-29T11:22:59.411Z,8.27
2022-12-29T11:25:28.374Z,10.75
2022-12-29T11:28:02.359Z,11.43
2022-12-29T11:30:33.313Z,11.15
2022-12-29T11:33:07.106Z,12.20
2022-12-29T11:35:38.379Z,13.05
2022-12-29T11:38:07.281Z,11.93
2022-12-29T11:40:41.605Z,9.02
2022-12-29T11:43:24.678Z,11.63
2022-12-29T11:45:55.489Z,14.48
2022-12-29T11:48:26.806Z,12.68
2022-12-29T11:50:58.772Z,15.40
2022-12-29T11:53:29.659Z,15.77
2022-12-29T11:56:00.959Z,10.00
2022-12-29T11:58:33.810Z,13.30
2022-12-29T12:01:05.393Z,10.82
2022-12-29T12:03:40.534Z,11.00
2022-12-29T12:06:15.049Z,10.68
2022-12-29T12:08:50.779Z,13.43
2022-12-29T12:11:21.889Z,11.57
2022-12-29T12:14:00.188Z,11.02
2022-12-29T12:16:33.809Z,12.70
2022-12-29T12:19:12.947Z,14.80
2022-12-29T12:21:52.478Z,11.97
2022-12-29T12:24:38.527Z,14.73
2022-12-29T12:27:18.553Z,15.27
2022-12-29T12:29:54.967Z,12.13
2022-12-29T12:32:27.221Z,13.65
2022-12-29T12:34:56.754Z,12.27
2022-12-29T12:37:41.879Z,13.27
2022-12-29T12:40:35.842Z,11.70
2022-12-29T12:43:26.410Z,15.05
2022-12-29T12:46:09.224Z,12.05
2022-12-29T12:48:54.480Z,14.43
2022-12-29T12:51:32.450Z,13.18
2022-12-29T12:54:15.858Z,15.40
2022-12-29T12:56:54.866Z,11.15
2022-12-29T12:59:35.309Z,14.35
2022-12-29T13:02:15.715Z,12.65
2022-12-29T13:05:09.038Z,14.65
2022-12-29T13:10:32.850Z,11.45
2022-12-29T13:13:16.077Z,9.32
2022-12-29T13:15:52.502Z,13.68
2022-12-29T13:18:28.835Z,13.15
2022-12-29T13:21:02.328Z,13.52
2022-12-29T13:23:42.568Z,14.73
2022-12-29T13:26:17.076Z,12.43
2022-12-29T13:28:55.496Z,9.20
2022-12-29T13:31:35.065Z,12.52
2022-12-29T13:34:19.263Z,11.93
2022-12-29T13:36:51.764Z,9.25
2022-12-29T13:39:25.284Z,15.98
2022-12-29T13:41:55.586Z,10.25
2022-12-29T13:44:31.892Z,11.30
2022-12-29T13:47:23.801Z,10.10
2022-12-29T13:49:53.303Z,13.35
2022-12-29T13:52:26.878Z,13.63
2022-12-29T13:55:04.347Z,10.45
2022-12-29T13:57:43.566Z,11.40
2022-12-29T14:00:17.276Z,9.50
2022-12-29T14:03:05.009Z,11.48
2022-12-29T14:05:34.548Z,12.23
2022-12-29T14:08:05.325Z,11.65
2022-12-29T14:10:37.640Z,9.85
2022-12-29T14:13:08.715Z,6.07
2022-12-29T14:15:42.438Z,10.52
2022-12-29T14:18:16.970Z,11.30
2022-12-29T14:20:55.690Z,8.70
2022-12-29T14:23:41.906Z,7.13
2022-12-29T14:26:20.908Z,9.10
2022-12-29T14:28:50.545Z,8.98
2022-12-29T14:31:42.956Z,4.78
2022-12-29T14:34:41.590Z,4.85
2022-12-29T14:37:26.900Z,6.85
2022-12-29T14:40:07.801Z,5.03
2022-12-29T14:42:37.477Z,5.05
2022-12-29T14:45:24.728Z,5.35
2022-12-29T14:47:54.718Z,8.13
2022-12-29T14:50:26.757Z,5.65
2022-12-29T14:53:02.953Z,7.70
2022-12-29T14:55:40.483Z,8.48
2022-12-29T14:58:18.076Z,6.90
2022-12-29T15:00:47.617Z,7.82
2022-12-29T15:03:20.291Z,7.63
2022-12-29T15:05:51.031Z,9.20
2022-12-29T15:08:21.505Z,11.02
2022-12-29T15:10:58.454Z,7.97
2022-12-29T15:13:36.531Z,8.32
2022-12-29T15:16:05.369Z,11.70
2022-12-29T15:18:35.507Z,8.50
2022-12-29T15:21:05.645Z,8.73
2022-12-29T15:23:35.906Z,6.78
2022-12-29T15:26:07.415Z,13.13
2022-12-29T15:28:42.063Z,10.13
2022-12-29T15:31:16.346Z,7.68
2022-12-29T15:33:48.294Z,7.55
2022-12-29T15:36:21.139Z,10.48
2022-12-29T15:41:29.175Z,9.20
2022-12-29T15:44:08.439Z,12.95
2022-12-29T15:46:36.959Z,10.68
2022-12-29T15:49:08.658Z,10.70
2022-12-29T15:51:39.881Z,11.07
2022-12-29T15:54:14.634Z,12.48
2022-12-29T15:56:43.736Z,9.50
2022-12-29T15:59:26.019Z,7.57
2022-12-29T16:01:55.304Z,10.70
2022-12-29T16:04:23.900Z,9.57
2022-12-29T16:06:58.106Z,9.32
2022-12-29T16:09:33.548Z,9.18
2022-12-29T16:12:04.053Z,6.63
2022-12-29T16:14:40.260Z,8.23
2022-12-29T16:17:08.575Z,11.52
2022-12-29T16:19:38.903Z,11.60
2022-12-29T16:22:28.652Z,10.48
2022-12-29T16:25:04.439Z,12.82
2022-12-29T16:27:40.265Z,8.88
2022-12-29T16:30:24.299Z,7.00
2022-12-29T16:33:00.152Z,8.90
2022-12-29T16:35:50.079Z,7.93
2022-12-29T16:38:22.390Z,11.00
2022-12-29T16:40:54.948Z,9.80
2022-12-29T16:43:25.253Z,13.30
2022-12-29T16:46:23.071Z,7.07
2022-12-29T16:48:56.443Z,10.13
2022-12-29T16:51:32.141Z,12.13
2022-12-29T16:54:01.862Z,9.98
2022-12-29T16:56:32.608Z,12.10
2022-12-29T16:59:05.450Z,9.23
2022-12-29T17:01:37.088Z,5.55
2022-12-29T17:04:11.708Z,9.40
2022-12-29T17:06:40.483Z,8.65
2022-12-29T17:09:19.216Z,9.18
2022-12-29T17:12:02.874Z,10.75
2022-12-29T17:14:42.698Z,5.13
2022-12-29T17:17:17.709Z,8.25
2022-12-29T17:19:51.157Z,7.72
2022-12-29T17:22:22.854Z,7.50
2022-12-29T17:24:50.955Z,11.43
2022-12-29T17:27:37.193Z,9.05
2022-12-29T17:30:07.584Z,6.38
2022-12-29T17:32:35.720Z,11.18
2022-12-29T17:35:05.700Z,10.45
2022-12-29T17:37:36.992Z,7.32
2022-12-29T17:40:07.562Z,5.82
2022-12-29T17:42:41.504Z,7.00
2022-12-29T17:45:15.993Z,6.25
2022-12-29T17:47:44.644Z,6.68
2022-12-29T17:50:17.515Z,6.18
2022-12-29T17:53:00.088Z,6.65
2022-12-29T17:55:36.896Z,7.55
2022-12-29T17:58:17.715Z,7.65
2022-12-29T18:00:46.432Z,9.00
2022-12-29T18:03:17.323Z,7.85
2022-12-29T18:05:47.047Z,11.02
2022-12-29T18:08:15.077Z,8.75
2022-12-29T18:10:43.709Z,17.48
2022-12-29T18:13:21.312Z,11.05
2022-12-29T18:15:49.673Z,9.07
2022-12-29T18:18:19.914Z,11.15
2022-12-29T18:20:51.178Z,11.60
2022-12-29T18:23:22.284Z,9.95
2022-12-29T18:25:53.961Z,23.77
2022-12-29T18:28:23.613Z,16.00
2022-12-29T18:30:52.413Z,12.55
2022-12-29T18:33:24.977Z,12.77
2022-12-29T18:35:58.251Z,12.38
2022-12-29T18:38:26.695Z,8.55
2022-12-29T18:40:55.346Z,9.60
2022-12-29T18:43:23.807Z,7.82
2022-12-29T18:45:57.676Z,11.50
2022-12-29T18:48:25.867Z,10.30
2022-12-29T18:50:55.311Z,10.77
2022-12-29T18:53:24.971Z,5.85
2022-12-29T18:55:53.916Z,6.93
2022-12-29T18:58:22.244Z,10.90
2022-12-29T19:00:51.021Z,9.65
2022-12-29T19:03:20.121Z,10.88
2022-12-29T19:05:48.883Z,8.65
2022-12-29T19:08:18.644Z,10.52
2022-12-29T19:10:51.094Z,11.05
2022-12-29T19:13:23.623Z,11.50
2022-12-29T19:15:54.246Z,9.82
2022-12-29T19:21:12.628Z,9.23
2022-12-29T19:23:50.796Z,10.65
2022-12-29T19:26:31.452Z,11.20
2022-12-29T19:29:00.779Z,11.68
2022-12-29T19:31:29.447Z,19.08
2022-12-29T19:33:57.686Z,12.73
2022-12-29T19:36:25.761Z,14.25
2022-12-29T19:38:55.864Z,9.70
2022-12-29T19:41:24.514Z,12.88
2022-12-29T19:43:52.562Z,14.27
2022-12-29T19:46:21.393Z,11.05
2022-12-29T19:48:50.541Z,16.10
2022-12-29T19:51:19.014Z,11.40
2022-12-29T19:53:47.886Z,11.05
2022-12-29T19:56:18.285Z,14.35
2022-12-29T19:58:47.834Z,12.82
2022-12-29T20:01:18.522Z,11.70
2022-12-29T20:03:47.086Z,6.70
2022-12-29T20:06:16.046Z,12.05
2022-12-29T20:08:44.906Z,11.18
2022-12-29T20:11:15.169Z,10.77
2022-12-29T20:13:45.467Z,17.02
2022-12-29T20:16:16.188Z,14.77
2022-12-29T20:18:44.779Z,14.95
2022-12-29T20:21:14.978Z,14.90
2022-12-29T20:23:44.864Z,15.40
2022-12-29T20:26:15.447Z,17.33
2022-12-29T20:28:45.015Z,12.85
2022-12-29T20:31:19.401Z,14.20
2022-12-29T20:33:47.769Z,13.93
2022-12-29T20:36:18.483Z,17.75
2022-12-29T20:38:47.360Z,17.30
2022-12-29T20:41:15.890Z,13.10
2022-12-29T20:43:45.741Z,12.00
2022-12-29T20:46:20.211Z,14.88
2022-12-29T20:48:49.383Z,15.48
2022-12-29T20:51:17.703Z,18.63
2022-12-29T20:53:45.743Z,14.90
2022-12-29T20:56:16.273Z,15.18
2022-12-29T20:59:17.518Z,15.45
2022-12-29T21:01:35.505Z,13.70
2022-12-29T21:04:03.854Z,20.08
2022-12-29T21:06:31.909Z,14.13
2022-12-29T21:09:00.434Z,14.38
2022-12-29T21:11:29.015Z,11.98
2022-12-29T21:14:01.167Z,13.52
2022-12-29T21:16:30.482Z,14.60
2022-12-29T21:18:58.870Z,11.43
2022-12-29T21:21:27.673Z,14.95
2022-12-29T21:24:05.310Z,18.25
2022-12-29T21:26:35.015Z,14.63
2022-12-29T21:29:04.975Z,14.40
2022-12-29T21:31:35.914Z,17.38
2022-12-29T21:34:05.649Z,14.25
2022-12-29T21:36:34.398Z,12.77
2022-12-29T21:39:04.187Z,17.90
2022-12-29T21:41:32.995Z,10.07
2022-12-29T21:44:19.455Z,13.73
2022-12-29T21:46:48.928Z,12.15
2022-12-29T21:49:17.310Z,16.67
2022-12-29T21:51:51.341Z,15.00
2022-12-29T21:54:37.799Z,13.88
2022-12-29T21:57:06.708Z,15.88
2022-12-29T21:59:52.402Z,10.77
2022-12-29T22:02:41.937Z,13.05
2022-12-29T22:05:30.243Z,13.98
2022-12-29T22:08:16.301Z,13.27
2022-12-29T22:11:06.568Z,11.30
2022-12-29T22:13:35.750Z,10.88
2022-12-29T22:16:04.806Z,11.27
2022-12-29T22:18:34.675Z,11.40
2022-12-29T22:21:05.551Z,14.82
2022-12-29T22:23:33.892Z,14.85
2022-12-29T22:26:05.085Z,11.88
2022-12-29T22:28:33.787Z,9.68
2022-12-29T22:31:02.092Z,13.43
2022-12-29T22:33:30.274Z,12.90
2022-12-29T22:36:00.089Z,14.27
2022-12-29T22:38:28.215Z,12.80
2022-12-29T22:40:59.987Z,14.57
2022-12-29T22:43:29.999Z,10.85
2022-12-29T22:46:03.620Z,17.38
2022-12-29T22:48:33.278Z,13.10
2022-12-29T22:51:03.436Z,13.68
2022-12-29T22:53:31.870Z,15.10
2022-12-29T22:56:04.914Z,12.23
2022-12-29T22:58:33.103Z,15.65
2022-12-29T23:01:01.468Z,11.25
2022-12-29T23:03:29.824Z,11.07
2022-12-29T23:05:59.322Z,14.65
2022-12-29T23:08:32.052Z,16.65
2022-12-29T23:11:00.190Z,14.45
2022-12-29T23:13:28.718Z,11.75
2022-12-29T23:15:56.988Z,9.73
2022-12-29T23:18:25.392Z,15.23
2022-12-29T23:20:53.506Z,13.10
2022-12-29T23:23:35.819Z,10.90
2022-12-29T23:26:05.616Z,12.85
2022-12-29T23:28:33.813Z,11.57
2022-12-29T23:31:02.228Z,12.13
2022-12-29T23:33:30.420Z,13.50
2022-12-29T23:35:58.555Z,13.52
2022-12-29T23:38:29.295Z,11.93
2022-12-29T23:40:59.998Z,12.65
2022-12-29T23:43:29.630Z,10.48
2022-12-29T23:45:57.832Z,13.32
2022-12-29T23:48:25.850Z,11.73
2022-12-29T23:50:53.918Z,13.95
2022-12-29T23:53:22.285Z,10.90
2022-12-29T23:55:54.911Z,13.13
